Time;durP1;ratioP1;P1;durP2;ratioP2;P2;SDS_P1;SDS_P2;PMS_P1;PMS_P2;Temp;Humidity;BMP_temperature;BMP_pressure;BME280_temperature;BME280_humidity;BME280_pressure;Samples;Min_cycle;Max_cycle;Signal;HPM_P1;HPM_P2
2022/04/30 00:02:07;;;;;;;12.93;8.90;;;8.90;47.80;;;;;;4955202;28;20455;-80
2022/04/30 00:04:35;;;;;;;14.20;10.30;;;8.90;48.10;;;;;;4954971;29;20456;-78
2022/04/30 00:07:02;;;;;;;13.27;8.57;;;8.80;49.00;;;;;;4955058;29;20479;-80
2022/04/30 00:09:28;;;;;;;16.40;10.30;;;8.70;49.40;;;;;;4954530;28;20494;-80
2022/04/30 00:12:21;;;;;;;13.80;7.80;;;8.60;51.10;;;;;;4955512;28;20830;-79
2022/04/30 00:14:48;;;;;;;18.93;10.93;;;8.70;50.70;;;;;;4945683;28;20468;-79
2022/04/30 00:17:15;;;;;;;19.60;10.30;;;8.40;51.20;;;;;;4954434;29;20463;-79
2022/04/30 00:19:42;;;;;;;16.40;10.90;;;8.40;51.60;;;;;;4953843;28;20479;-79
2022/04/30 00:22:09;;;;;;;16.93;9.87;;;8.20;51.90;;;;;;4954342;29;20447;-79
2022/04/30 00:24:38;;;;;;;20.27;11.00;;;8.20;53.40;;;;;;4954847;28;20456;-79
2022/04/30 00:27:05;;;;;;;21.63;11.67;;;8.30;53.80;;;;;;4954462;28;20452;-80
2022/04/30 00:29:33;;;;;;;20.67;12.57;;;8.10;54.60;;;;;;4953773;28;21189;-80
2022/04/30 00:32:02;;;;;;;17.50;8.57;;;8.00;54.90;;;;;;4954165;29;20458;-80
2022/04/30 00:34:29;;;;;;;12.73;7.03;;;8.00;55.10;;;;;;4954569;28;20459;-80
2022/04/30 00:36:56;;;;;;;17.87;11.30;;;8.10;54.10;;;;;;4954339;28;20463;-79
2022/04/30 00:39:23;;;;;;;14.70;11.10;;;8.10;54.50;;;;;;4953787;29;20479;-79
2022/04/30 00:41:50;;;;;;;14.70;9.33;;;7.90;55.20;;;;;;4954299;28;20458;-79
2022/04/30 00:44:18;;;;;;;18.77;12.63;;;7.80;56.80;;;;;;4954489;28;20464;-79
2022/04/30 00:46:47;;;;;;;14.73;10.07;;;7.70;57.10;;;;;;4953915;28;20518;-79
2022/04/30 00:49:14;;;;;;;17.93;10.30;;;7.80;57.50;;;;;;4953442;29;20484;-79
2022/04/30 00:51:43;;;;;;;15.80;10.13;;;7.80;58.40;;;;;;4954268;28;20572;-79
2022/04/30 00:54:12;;;;;;;13.03;8.90;;;7.80;58.60;;;;;;4954679;28;20459;-79
2022/04/30 00:56:48;;;;;;;17.20;10.33;;;7.90;57.30;;;;;;4954272;28;20841;-80
2022/04/30 00:59:17;;;;;;;24.57;11.13;;;7.90;56.50;;;;;;4953556;29;20490;-79
2022/04/30 01:01:45;;;;;;;16.10;11.10;;;8.00;57.10;;;;;;4954100;28;20593;-80
2022/04/30 01:04:14;;;;;;;19.47;10.47;;;7.80;57.80;;;;;;4954393;28;20460;-80
2022/04/30 01:06:52;;;;;;;13.90;9.60;;;7.70;60.00;;;;;;4954124;28;20452;-79
2022/04/30 01:09:22;;;;;;;18.90;12.43;;;7.70;60.00;;;;;;4953468;29;20483;-79
2022/04/30 01:11:52;;;;;;;18.53;13.97;;;7.50;62.60;;;;;;4954125;28;20842;-79
2022/04/30 01:14:19;;;;;;;21.60;12.60;;;7.50;63.00;;;;;;4954093;28;20466;-79
2022/04/30 01:16:47;;;;;;;20.10;13.53;;;7.60;63.20;;;;;;4954183;29;20463;-79
2022/04/30 01:19:20;;;;;;;17.03;11.87;;;7.50;63.00;;;;;;4954273;28;20476;-80
2022/04/30 01:21:50;;;;;;;13.43;8.47;;;7.50;64.40;;;;;;4955459;28;20483;-80
2022/04/30 01:24:24;;;;;;;18.60;12.97;;;7.30;64.90;;;;;;4955613;29;20514;-80
2022/04/30 01:26:52;;;;;;;15.37;9.87;;;7.40;65.50;;;;;;4956419;28;20460;-80
2022/04/30 01:29:19;;;;;;;17.30;9.87;;;7.30;66.70;;;;;;4958749;28;20495;-80
2022/04/30 01:37:37;;;;;;;16.40;9.63;;;7.20;67.60;;;;;;4953997;28;20447;-80
2022/04/30 01:40:06;;;;;;;20.77;13.27;;;7.30;67.70;;;;;;4958001;28;20486;-80
2022/04/30 01:42:36;;;;;;;21.80;13.60;;;7.30;68.90;;;;;;4959219;28;20475;-80
2022/04/30 01:45:05;;;;;;;21.63;13.80;;;7.20;68.00;;;;;;4959011;28;20448;-80
2022/04/30 01:47:33;;;;;;;15.20;10.30;;;7.30;67.70;;;;;;4958895;29;20483;-81
2022/04/30 01:50:00;;;;;;;14.00;10.17;;;7.30;67.70;;;;;;4957828;28;20483;-80
2022/04/30 01:52:27;;;;;;;18.43;12.03;;;7.40;67.00;;;;;;4958411;28;20470;-80
2022/04/30 01:54:54;;;;;;;14.30;8.70;;;7.40;67.80;;;;;;4958902;28;20448;-81
2022/04/30 01:57:25;;;;;;;18.23;11.30;;;7.40;66.10;;;;;;4958491;28;20463;-81
2022/04/30 01:59:52;;;;;;;20.13;9.87;;;7.20;65.40;;;;;;4958303;29;21004;-80
2022/04/30 02:02:22;;;;;;;15.33;11.20;;;7.30;65.10;;;;;;4958746;28;20452;-80
2022/04/30 02:04:50;;;;;;;16.00;10.27;;;7.20;65.30;;;;;;4958128;28;20964;-80
2022/04/30 02:07:18;;;;;;;14.90;11.33;;;7.10;66.30;;;;;;4958172;28;20456;-80
2022/04/30 02:09:45;;;;;;;14.07;10.53;;;7.10;67.60;;;;;;4957407;28;20479;-80
2022/04/30 02:12:11;;;;;;;12.70;9.30;;;7.00;68.70;;;;;;4958099;28;20456;-80
2022/04/30 02:14:44;;;;;;;13.00;9.63;;;6.80;67.70;;;;;;4958550;28;20463;-80
2022/04/30 02:17:12;;;;;;;16.70;11.30;;;6.80;68.50;;;;;;4958040;28;20452;-80
2022/04/30 02:22:30;;;;;;;15.00;11.67;;;6.70;71.60;;;;;;4957291;29;20539;-79
2022/04/30 02:24:58;;;;;;;17.17;11.20;;;6.50;73.10;;;;;;4957451;28;20961;-80
2022/04/30 02:27:25;;;;;;;21.63;19.23;;;6.50;73.50;;;;;;4957409;28;20984;-80
2022/04/30 02:29:53;;;;;;;19.13;17.30;;;6.40;74.90;;;;;;4957105;29;20871;-81
2022/04/30 02:32:20;;;;;;;19.87;18.07;;;6.40;75.10;;;;;;4957684;29;20456;-81
2022/04/30 02:34:47;;;;;;;24.77;16.67;;;6.30;76.30;;;;;;4958172;28;20819;-80
2022/04/30 02:37:14;;;;;;;23.57;21.50;;;6.40;75.20;;;;;;4957956;28;20455;-80
2022/04/30 02:39:42;;;;;;;17.60;14.43;;;6.30;76.10;;;;;;4956565;29;20472;-80
2022/04/30 02:42:10;;;;;;;12.40;11.07;;;6.30;77.00;;;;;;4957554;29;20460;-80
2022/04/30 02:44:37;;;;;;;19.33;16.97;;;6.30;76.90;;;;;;4957755;28;21088;-80
2022/04/30 02:47:07;;;;;;;20.30;18.40;;;6.30;77.80;;;;;;4957679;28;20453;-80
2022/04/30 02:49:34;;;;;;;24.07;21.77;;;6.40;79.30;;;;;;4956431;28;20483;-80
2022/04/30 02:52:01;;;;;;;23.57;21.40;;;6.30;78.40;;;;;;4957164;29;20881;-80
2022/04/30 02:54:29;;;;;;;20.73;19.03;;;6.30;79.30;;;;;;4957337;28;20458;-80
2022/04/30 02:56:55;;;;;;;16.60;14.90;;;6.30;78.20;;;;;;4957113;28;20455;-80
2022/04/30 03:02:08;;;;;;;24.47;22.60;;;6.30;79.00;;;;;;4957748;29;20511;-80
2022/04/30 03:04:35;;;;;;;19.83;18.20;;;6.30;79.30;;;;;;4957244;28;20460;-81
2022/04/30 03:07:03;;;;;;;30.33;27.43;;;6.30;78.90;;;;;;4957417;28;20463;-80
2022/04/30 03:09:30;;;;;;;21.87;19.77;;;6.20;79.30;;;;;;4956281;29;21048;-80
2022/04/30 03:11:58;;;;;;;26.77;24.80;;;6.20;79.60;;;;;;4956473;28;20467;-80
2022/04/30 03:14:24;;;;;;;28.90;26.30;;;6.10;80.20;;;;;;4957194;29;20479;-81
2022/04/30 03:22:21;;;;;;;58.27;55.23;;;5.90;83.40;;;;;;4964702;29;20451;-84
2022/04/30 03:24:48;;;;;;;82.63;78.40;;;5.90;84.60;;;;;;4959082;28;20478;-80
2022/04/30 03:27:17;;;;;;;157.10;151.00;;;5.80;89.60;;;;;;4955533;28;20452;-80
2022/04/30 03:29:46;;;;;;;198.57;190.77;;;5.50;91.00;;;;;;4953247;28;20476;-80
2022/04/30 03:32:13;;;;;;;288.63;278.67;;;5.40;93.00;;;;;;4955268;28;20462;-80
2022/04/30 03:34:41;;;;;;;362.90;349.73;;;5.20;95.60;;;;;;4953929;28;20895;-80
2022/04/30 03:37:09;;;;;;;343.10;331.27;;;5.00;98.00;;;;;;4953284;28;20473;-82
2022/04/30 03:39:36;;;;;;;340.77;328.70;;;5.10;99.40;;;;;;4955327;29;20468;-80
2022/04/30 03:42:03;;;;;;;435.73;419.60;;;5.10;99.90;;;;;;4956558;28;20458;-79
2022/04/30 03:44:30;;;;;;;452.67;435.63;;;5.00;99.90;;;;;;4954516;28;20869;-80
2022/04/30 03:46:56;;;;;;;524.30;503.87;;;5.00;99.90;;;;;;4958065;28;20532;-83
2022/04/30 03:49:23;;;;;;;471.07;453.37;;;5.00;99.90;;;;;;4958435;28;20480;-80
2022/04/30 03:51:54;;;;;;;484.67;466.77;;;5.10;99.90;;;;;;4956369;28;20490;-80
2022/04/30 03:54:20;;;;;;;433.90;417.83;;;5.00;99.90;;;;;;4956504;28;20463;-80
2022/04/30 03:56:47;;;;;;;455.20;437.63;;;5.20;99.90;;;;;;4958339;28;20451;-82
2022/04/30 03:59:15;;;;;;;381.13;367.43;;;5.30;99.90;;;;;;4956830;28;20480;-81
2022/04/30 04:01:42;;;;;;;357.60;344.50;;;5.40;99.90;;;;;;4957487;28;20452;-81
2022/04/30 04:04:08;;;;;;;262.83;254.13;;;5.50;99.90;;;;;;4958000;28;20965;-81
2022/04/30 04:06:35;;;;;;;320.37;308.47;;;5.50;99.90;;;;;;4955806;28;20494;-81
2022/04/30 04:09:03;;;;;;;296.17;286.10;;;5.50;99.90;;;;;;4957194;29;20456;-82
2022/04/30 04:11:30;;;;;;;333.47;321.33;;;5.50;99.90;;;;;;4957080;28;20526;-81
2022/04/30 04:19:29;;;;;;;369.23;355.83;;;5.50;99.90;;;;;;4956236;29;20462;-81
2022/04/30 04:21:56;;;;;;;327.40;315.37;;;5.40;99.90;;;;;;4954925;29;20478;-80
2022/04/30 04:27:08;;;;;;;315.60;304.30;;;5.50;99.90;;;;;;4955617;29;20523;-81
2022/04/30 04:29:35;;;;;;;384.63;371.07;;;5.50;99.90;;;;;;4954338;28;20472;-81
2022/04/30 04:32:02;;;;;;;404.43;389.57;;;5.40;99.90;;;;;;4956001;28;20503;-80
2022/04/30 04:34:29;;;;;;;422.23;406.63;;;5.40;99.90;;;;;;4956500;28;20452;-81
2022/04/30 04:36:55;;;;;;;396.20;381.77;;;5.40;99.90;;;;;;4955230;28;20464;-82
2022/04/30 04:39:23;;;;;;;391.20;377.27;;;5.40;99.90;;;;;;4955840;29;20483;-81
2022/04/30 04:41:50;;;;;;;398.67;385.27;;;5.40;99.90;;;;;;4944710;29;20452;-81
2022/04/30 04:44:17;;;;;;;410.90;396.23;;;5.40;99.90;;;;;;4955765;29;20479;-81
2022/04/30 04:46:44;;;;;;;455.53;438.43;;;5.40;99.90;;;;;;4959020;28;20462;-81
2022/04/30 04:49:11;;;;;;;385.17;371.63;;;5.40;99.90;;;;;;4955452;28;20490;-81
2022/04/30 04:51:38;;;;;;;423.47;407.97;;;5.40;99.90;;;;;;4955055;28;20486;-80
2022/04/30 04:54:05;;;;;;;503.87;484.07;;;5.50;99.90;;;;;;4957027;29;20464;-81
2022/04/30 04:56:33;;;;;;;572.20;547.83;;;5.50;99.90;;;;;;4956062;28;21012;-80
2022/04/30 04:59:00;;;;;;;583.57;559.10;;;5.40;99.90;;;;;;4954350;28;20471;-81
2022/04/30 05:01:42;;;;;;;616.90;590.60;;;5.30;99.90;;;;;;4961113;28;20452;-81
2022/04/30 05:04:10;;;;;;;687.07;655.07;;;5.20;99.90;;;;;;4959871;28;20456;-81
2022/04/30 05:06:36;;;;;;;704.20;670.10;;;5.30;99.90;;;;;;4959951;28;20479;-80
2022/04/30 05:09:03;;;;;;;734.73;698.47;;;5.20;99.90;;;;;;4959170;29;20878;-82
2022/04/30 05:11:30;;;;;;;762.90;723.13;;;5.20;99.90;;;;;;4959488;28;20981;-81
2022/04/30 05:13:58;;;;;;;759.20;718.73;;;5.10;99.90;;;;;;4960266;28;20499;-80
2022/04/30 05:16:25;;;;;;;766.23;725.47;;;5.10;99.90;;;;;;4960107;28;20996;-79
2022/04/30 05:18:51;;;;;;;730.47;693.67;;;5.20;99.90;;;;;;4958775;28;20452;-81
2022/04/30 05:21:18;;;;;;;728.43;691.43;;;5.30;99.90;;;;;;4960178;29;20945;-81
2022/04/30 05:23:45;;;;;;;705.57;670.43;;;5.40;99.90;;;;;;4960020;29;20832;-81
2022/04/30 05:26:11;;;;;;;639.80;609.53;;;5.40;99.90;;;;;;4960404;28;20467;-81
2022/04/30 05:28:38;;;;;;;444.73;425.87;;;5.70;99.90;;;;;;4958004;28;20523;-80
2022/04/30 05:31:07;;;;;;;339.70;325.77;;;5.80;99.90;;;;;;4960091;29;20484;-79
2022/04/30 05:33:35;;;;;;;240.40;231.13;;;6.00;99.90;;;;;;4960056;28;20451;-79
2022/04/30 05:36:02;;;;;;;162.73;155.73;;;6.30;99.90;;;;;;4957098;29;21028;-80
2022/04/30 05:38:29;;;;;;;111.33;105.53;;;6.50;99.90;;;;;;4957198;28;20463;-79
2022/04/30 05:40:55;;;;;;;60.57;56.37;;;6.70;99.90;;;;;;4957339;29;20474;-79
2022/04/30 05:43:22;;;;;;;26.73;22.23;;;7.00;99.70;;;;;;4959641;28;20467;-80
2022/04/30 05:45:49;;;;;;;18.97;16.33;;;7.20;94.50;;;;;;4956578;28;20452;-80
2022/04/30 05:48:17;;;;;;;24.53;17.33;;;7.30;91.60;;;;;;4958160;28;20452;-78
2022/04/30 05:50:44;;;;;;;18.73;12.97;;;7.50;90.50;;;;;;4957572;28;20486;-80
2022/04/30 05:53:11;;;;;;;16.73;11.47;;;7.60;90.00;;;;;;4956029;29;20466;-79
2022/04/30 05:55:39;;;;;;;19.00;10.90;;;7.90;87.40;;;;;;4956287;28;20456;-80
2022/04/30 05:58:06;;;;;;;17.70;12.03;;;7.90;83.20;;;;;;4957087;28;20456;-79
2022/04/30 06:00:33;;;;;;;21.50;11.00;;;8.20;82.80;;;;;;4955195;29;20506;-80
2022/04/30 06:03:00;;;;;;;13.50;8.90;;;8.30;80.00;;;;;;4956656;28;20467;-80
2022/04/30 06:05:28;;;;;;;10.20;7.10;;;8.50;76.70;;;;;;4956820;28;20456;-80
2022/04/30 06:07:55;;;;;;;14.37;7.27;;;8.70;72.30;;;;;;4957943;28;20456;-79
2022/04/30 06:10:22;;;;;;;11.20;6.40;;;8.80;69.20;;;;;;4956172;28;20479;-80
2022/04/30 06:12:49;;;;;;;9.30;6.40;;;8.70;68.90;;;;;;4955787;28;20468;-80
2022/04/30 06:15:16;;;;;;;14.90;9.23;;;8.90;70.30;;;;;;4956236;28;20458;-80
2022/04/30 06:17:42;;;;;;;16.70;9.03;;;8.70;69.70;;;;;;4956499;28;20455;-80
2022/04/30 06:20:11;;;;;;;12.20;8.53;;;8.50;71.70;;;;;;4955877;29;20475;-81
2022/04/30 06:22:40;;;;;;;18.13;9.80;;;8.50;73.20;;;;;;4957491;29;20455;-82
2022/04/30 06:25:08;;;;;;;13.57;7.80;;;8.20;73.70;;;;;;4959156;28;20535;-82
2022/04/30 06:27:35;;;;;;;13.57;7.67;;;8.00;75.50;;;;;;4959242;29;20456;-82
2022/04/30 06:30:02;;;;;;;15.67;8.47;;;7.80;76.10;;;;;;4957943;29;20476;-81
2022/04/30 06:32:29;;;;;;;20.90;12.13;;;7.70;76.50;;;;;;4958802;28;20479;-81
2022/04/30 06:34:56;;;;;;;24.73;11.80;;;7.70;77.80;;;;;;4958899;29;20479;-82
2022/04/30 06:37:23;;;;;;;14.93;8.90;;;7.60;78.40;;;;;;4959417;29;20468;-80
2022/04/30 06:39:51;;;;;;;17.17;10.03;;;7.60;79.10;;;;;;4958225;28;20472;-81
2022/04/30 06:42:18;;;;;;;11.07;8.43;;;7.70;79.20;;;;;;4958247;29;20452;-81
2022/04/30 06:44:45;;;;;;;17.40;11.23;;;7.70;76.00;;;;;;4958506;28;20459;-81
2022/04/30 06:47:12;;;;;;;8.33;5.90;;;7.90;78.80;;;;;;4958202;29;20468;-81
2022/04/30 06:49:38;;;;;;;16.03;10.47;;;7.90;76.10;;;;;;4959204;28;20472;-85
2022/04/30 06:52:06;;;;;;;20.60;11.10;;;7.80;76.80;;;;;;4959752;28;20479;-80
2022/04/30 06:57:21;;;;;;;16.47;11.87;;;8.00;76.30;;;;;;4955628;29;20439;-81
2022/04/30 06:59:51;;;;;;;17.47;10.73;;;8.20;74.50;;;;;;4957465;28;20493;-81
2022/04/30 07:02:21;;;;;;;11.10;7.90;;;8.20;75.10;;;;;;4960611;28;20448;-81
2022/04/30 07:04:51;;;;;;;16.00;11.00;;;8.20;74.90;;;;;;4957846;29;20459;-83
2022/04/30 07:07:18;;;;;;;12.70;8.40;;;8.50;75.00;;;;;;4957718;29;20455;-82
2022/04/30 07:09:45;;;;;;;13.23;8.20;;;8.60;72.00;;;;;;4954966;28;20501;-81
2022/04/30 07:12:14;;;;;;;17.40;9.40;;;8.60;69.70;;;;;;4956418;29;20486;-82
2022/04/30 07:14:44;;;;;;;25.23;7.17;;;8.70;68.90;;;;;;4956399;28;20456;-82
2022/04/30 07:17:12;;;;;;;15.23;9.23;;;8.80;69.40;;;;;;4957533;29;20898;-81
2022/04/30 07:19:39;;;;;;;20.43;12.10;;;9.00;69.10;;;;;;4955806;29;20476;-81
2022/04/30 07:22:07;;;;;;;14.60;7.30;;;9.30;69.40;;;;;;4957402;28;20478;-82
2022/04/30 07:24:34;;;;;;;14.80;7.50;;;9.60;60.50;;;;;;4956733;28;20458;-81
2022/04/30 07:27:01;;;;;;;16.07;7.10;;;9.60;60.20;;;;;;4956352;29;20451;-81
2022/04/30 07:29:28;;;;;;;12.60;9.07;;;9.80;56.00;;;;;;4956161;28;20471;-81
2022/04/30 07:31:56;;;;;;;12.83;7.47;;;9.90;57.10;;;;;;4956159;29;20487;-81
2022/04/30 07:34:23;;;;;;;16.08;8.48;;;9.90;55.10;;;;;;4955996;29;20463;-80
2022/04/30 07:36:50;;;;;;;11.73;8.00;;;9.90;55.10;;;;;;4958501;29;20201;-82
2022/04/30 07:39:17;;;;;;;13.03;8.40;;;10.10;54.90;;;;;;4957125;29;20860;-82
2022/04/30 07:41:43;;;;;;;12.40;7.35;;;9.50;53.60;;;;;;4958036;28;20467;-82
2022/04/30 07:44:11;;;;;;;13.13;8.40;;;9.40;53.00;;;;;;4959862;28;20665;-82
2022/04/30 07:46:37;;;;;;;17.63;8.50;;;9.70;55.20;;;;;;4956981;28;20808;-82
2022/04/30 07:49:05;;;;;;;10.60;6.90;;;10.30;52.80;;;;;;4956597;28;20456;-82
2022/04/30 07:51:42;;;;;;;11.57;6.80;;;10.50;49.60;;;;;;4957187;28;20472;-82
2022/04/30 07:54:09;;;;;;;10.80;6.60;;;11.30;49.80;;;;;;4958335;29;20459;-82
2022/04/30 07:56:36;;;;;;;12.20;7.07;;;11.70;42.30;;;;;;4957968;28;20463;-82
2022/04/30 07:59:02;;;;;;;11.40;7.00;;;12.30;39.70;;;;;;4957189;28;20475;-82
2022/04/30 08:01:29;;;;;;;11.63;6.00;;;12.40;38.00;;;;;;4958445;28;20481;-82
2022/04/30 08:03:56;;;;;;;9.37;6.20;;;12.90;36.00;;;;;;4958249;29;20451;-82
2022/04/30 08:06:24;;;;;;;9.23;6.13;;;12.10;31.50;;;;;;4957756;28;20462;-82
2022/04/30 08:08:51;;;;;;;12.43;7.43;;;11.50;34.10;;;;;;4956984;28;20456;-82
2022/04/30 08:11:17;;;;;;;12.13;6.30;;;10.90;34.80;;;;;;4957056;29;20481;-82
2022/04/30 08:13:44;;;;;;;10.63;5.57;;;10.60;36.80;;;;;;4956882;29;20812;-82
2022/04/30 08:16:11;;;;;;;10.20;7.57;;;10.30;35.30;;;;;;4956998;29;20453;-82
2022/04/30 08:18:38;;;;;;;10.77;6.67;;;10.10;37.50;;;;;;4956853;28;20458;-82
2022/04/30 08:21:06;;;;;;;10.60;6.80;;;10.10;39.10;;;;;;4957859;29;20476;-82
2022/04/30 08:23:34;;;;;;;8.20;5.63;;;10.30;37.80;;;;;;4958101;28;20488;-82
2022/04/30 08:26:02;;;;;;;9.03;5.20;;;10.80;38.60;;;;;;4957652;28;20459;-82
2022/04/30 08:28:29;;;;;;;9.57;4.60;;;11.10;33.60;;;;;;4956915;28;20571;-82
2022/04/30 08:30:57;;;;;;;8.10;4.80;;;11.40;30.20;;;;;;4956557;29;20472;-82
2022/04/30 08:33:24;;;;;;;10.90;4.93;;;11.80;28.30;;;;;;4956066;28;20491;-82
2022/04/30 08:35:51;;;;;;;7.60;4.90;;;12.50;32.30;;;;;;4947960;28;20455;-82
2022/04/30 08:38:17;;;;;;;14.63;5.00;;;13.50;27.40;;;;;;4960296;28;20453;-82
2022/04/30 08:40:46;;;;;;;8.40;4.33;;;12.70;28.90;;;;;;4961038;28;20476;-82
2022/04/30 08:43:15;;;;;;;11.17;4.90;;;12.60;27.80;;;;;;4963063;29;20435;-83
2022/04/30 08:45:43;;;;;;;9.17;4.17;;;12.40;26.40;;;;;;4968260;28;20467;-83
2022/04/30 08:48:11;;;;;;;7.83;4.67;;;11.50;26.80;;;;;;4969211;29;20460;-81
2022/04/30 08:50:38;;;;;;;10.13;5.50;;;11.20;27.80;;;;;;4970443;28;20540;-82
2022/04/30 08:53:06;;;;;;;9.80;6.67;;;11.30;27.90;;;;;;4964204;28;20519;-82
2022/04/30 08:55:33;;;;;;;10.27;7.73;;;11.00;30.00;;;;;;4964774;28;20491;-85
2022/04/30 08:58:02;;;;;;;9.77;6.33;;;11.70;31.60;;;;;;4962883;28;20456;-82
2022/04/30 09:00:29;;;;;;;9.97;6.77;;;12.20;28.60;;;;;;4960316;29;20494;-83
2022/04/30 09:02:58;;;;;;;11.30;7.30;;;12.40;27.70;;;;;;4960636;28;20471;-82
2022/04/30 09:05:32;;;;;;;11.57;6.10;;;12.60;27.00;;;;;;4962356;28;20460;-82
2022/04/30 09:08:00;;;;;;;9.10;5.73;;;12.80;23.80;;;;;;4963403;28;21025;-82
2022/04/30 09:10:30;;;;;;;9.70;6.33;;;13.00;21.80;;;;;;4961753;28;20473;-83
2022/04/30 09:13:06;;;;;;;7.83;5.60;;;13.10;19.70;;;;;;4963365;28;20486;-83
2022/04/30 09:15:34;;;;;;;10.43;4.60;;;13.30;22.20;;;;;;4945443;29;20493;-84
2022/04/30 09:18:02;;;;;;;9.87;5.90;;;12.70;19.30;;;;;;4962086;28;20822;-83
2022/04/30 09:20:30;;;;;;;10.00;5.20;;;12.60;23.40;;;;;;4958932;29;20480;-83
2022/04/30 09:22:57;;;;;;;9.80;5.13;;;12.80;18.70;;;;;;4959666;28;20977;-83
2022/04/30 09:25:24;;;;;;;7.80;5.73;;;13.50;19.00;;;;;;4959855;28;20452;-80
2022/04/30 09:27:52;;;;;;;9.40;4.73;;;13.40;20.00;;;;;;4960112;29;20469;-83
2022/04/30 09:30:21;;;;;;;10.57;6.23;;;13.30;20.20;;;;;;4960299;28;20531;-82
2022/04/30 09:32:58;;;;;;;10.53;4.87;;;13.60;17.50;;;;;;4962498;28;20484;-85
2022/04/30 09:38:10;;;;;;;8.73;5.33;;;13.40;15.60;;;;;;4959254;29;20503;-85
2022/04/30 09:40:37;;;;;;;9.00;5.23;;;13.80;17.80;;;;;;4957532;29;20472;-85
2022/04/30 09:43:05;;;;;;;11.53;5.30;;;13.40;17.30;;;;;;4962300;28;20453;-87
2022/04/30 09:45:35;;;;;;;11.37;7.13;;;13.70;15.20;;;;;;4961587;29;20952;-85
2022/04/30 09:53:56;;;;;;;9.00;6.70;;;14.40;20.10;;;;;;4959719;28;20486;-84
2022/04/30 09:56:24;;;;;;;6.93;4.77;;;14.30;15.60;;;;;;4954559;28;20444;-84
2022/04/30 09:58:51;;;;;;;6.07;3.73;;;14.40;15.70;;;;;;4959765;28;20456;-85
2022/04/30 10:01:19;;;;;;;7.87;3.87;;;14.20;12.80;;;;;;4961807;29;20456;-84
2022/04/30 10:03:49;;;;;;;7.67;3.97;;;13.80;11.10;;;;;;4962311;28;20458;-85
2022/04/30 10:06:17;;;;;;;7.70;4.37;;;14.10;10.30;;;;;;4960680;28;20463;-85
2022/04/30 10:08:45;;;;;;;8.50;4.80;;;14.50;10.60;;;;;;4962731;28;20483;-85
2022/04/30 10:11:26;;;;;;;9.17;5.40;;;14.70;9.40;;;;;;4963739;29;20511;-85
2022/04/30 10:14:01;;;;;;;7.17;4.33;;;14.80;11.70;;;;;;4961342;29;20487;-85
2022/04/30 10:16:31;;;;;;;7.70;5.00;;;14.60;9.30;;;;;;4963868;29;20464;-84
2022/04/30 10:19:06;;;;;;;7.77;5.13;;;14.80;8.50;;;;;;4961650;28;20479;-85
2022/04/30 10:21:33;;;;;;;7.00;3.63;;;15.80;9.90;;;;;;4963849;29;20462;-85
2022/04/30 10:24:04;;;;;;;7.10;4.83;;;15.40;8.90;;;;;;4962036;29;21088;-85
2022/04/30 10:26:31;;;;;;;9.20;4.07;;;15.90;9.20;;;;;;4958964;28;20454;-84
2022/04/30 10:29:02;;;;;;;9.57;4.90;;;15.60;8.20;;;;;;4961843;28;20467;-85
2022/04/30 10:31:30;;;;;;;8.67;4.93;;;15.90;7.10;;;;;;4963272;29;20483;-85
2022/04/30 10:33:57;;;;;;;14.57;5.30;;;15.90;6.70;;;;;;4962215;28;20486;-85
2022/04/30 10:36:24;;;;;;;8.20;4.30;;;15.90;4.20;;;;;;4962358;28;21040;-85
2022/04/30 10:39:02;;;;;;;7.40;4.30;;;16.40;5.40;;;;;;4960014;29;20459;-83
2022/04/30 10:41:29;;;;;;;9.53;3.30;;;16.10;1.70;;;;;;4965769;28;20583;-86
2022/04/30 10:44:03;;;;;;;8.60;4.37;;;16.20;6.00;;;;;;4964858;28;20460;-86
2022/04/30 10:46:39;;;;;;;10.23;5.27;;;16.10;2.50;;;;;;4966291;28;20527;-85
2022/04/30 10:49:06;;;;;;;11.70;5.20;;;16.20;2.60;;;;;;4963011;28;20860;-85
2022/04/30 10:51:38;;;;;;;9.73;5.30;;;17.40;3.20;;;;;;4966069;28;20456;-84
2022/04/30 10:54:10;;;;;;;9.97;5.60;;;17.20;1.70;;;;;;4964207;28;20512;-83
2022/04/30 10:56:38;;;;;;;13.00;6.33;;;16.20;9.00;;;;;;4963858;28;20453;-85
2022/04/30 10:59:06;;;;;;;12.83;6.50;;;15.40;8.30;;;;;;4962230;28;20537;-85
2022/04/30 11:01:33;;;;;;;10.70;7.60;;;15.60;7.90;;;;;;4963952;28;20459;-83
2022/04/30 11:04:02;;;;;;;12.82;7.95;;;15.00;9.80;;;;;;4963182;28;20862;-83
2022/04/30 11:06:31;;;;;;;14.50;8.60;;;15.70;10.30;;;;;;4963382;28;20208;-82
2022/04/30 11:08:59;;;;;;;11.97;6.90;;;15.50;8.30;;;;;;4961589;28;21039;-82
2022/04/30 11:11:26;;;;;;;11.23;6.50;;;15.10;6.90;;;;;;4961141;28;20462;-80
2022/04/30 11:13:59;;;;;;;9.47;5.50;;;14.80;7.30;;;;;;4961871;28;20479;-79
2022/04/30 11:16:33;;;;;;;10.00;5.87;;;16.20;7.10;;;;;;4963999;28;20470;-79
2022/04/30 11:19:08;;;;;;;12.87;6.60;;;18.10;1.00;;;;;;4961736;28;20912;-82
2022/04/30 11:21:37;;;;;;;10.87;7.70;;;15.80;5.50;;;;;;4959519;28;20464;-81
2022/04/30 11:24:05;;;;;;;10.50;5.90;;;14.90;8.40;;;;;;4961192;28;20448;-83
2022/04/30 11:26:36;;;;;;;11.30;6.67;;;15.20;8.80;;;;;;4963478;29;20458;-83
2022/04/30 11:29:08;;;;;;;11.13;6.43;;;16.60;8.80;;;;;;4960966;29;20476;-80
2022/04/30 11:31:35;;;;;;;14.53;7.27;;;16.20;5.80;;;;;;4963436;29;20839;-83
2022/04/30 11:34:09;;;;;;;8.97;6.27;;;15.70;6.80;;;;;;4961200;28;20477;-83
2022/04/30 11:36:41;;;;;;;9.30;6.50;;;15.40;10.70;;;;;;4961638;29;20466;-81
2022/04/30 11:39:07;;;;;;;11.60;8.40;;;15.30;8.80;;;;;;4959692;29;20878;-80
2022/04/30 11:41:39;;;;;;;10.73;5.10;;;16.10;10.60;;;;;;4961898;28;20466;-82
2022/04/30 11:44:06;;;;;;;11.80;7.30;;;16.10;8.10;;;;;;4959640;28;20483;-79
2022/04/30 11:46:33;;;;;;;13.40;7.53;;;15.40;8.70;;;;;;4962042;29;20462;-82
2022/04/30 11:49:00;;;;;;;11.30;6.83;;;16.70;7.00;;;;;;4961628;29;20562;-83
2022/04/30 11:51:29;;;;;;;10.40;6.67;;;17.30;2.60;;;;;;4964500;28;20453;-83
2022/04/30 11:53:56;;;;;;;17.27;6.73;;;17.10;3.70;;;;;;4968697;28;20854;-81
2022/04/30 11:56:23;;;;;;;11.30;6.47;;;17.40;4.30;;;;;;4968216;28;20469;-82
2022/04/30 11:58:49;;;;;;;9.13;6.87;;;17.60;2.20;;;;;;4968296;28;20464;-79
2022/04/30 12:01:22;;;;;;;9.03;4.53;;;17.70;1.00;;;;;;4963783;29;20462;-80
2022/04/30 12:03:57;;;;;;;11.80;6.33;;;16.40;3.00;;;;;;4960386;29;20450;-84
2022/04/30 12:06:25;;;;;;;11.70;7.50;;;15.60;6.80;;;;;;4961922;28;20460;-83
2022/04/30 12:09:01;;;;;;;11.27;8.33;;;15.10;8.20;;;;;;4956212;29;20460;-87
2022/04/30 12:11:29;;;;;;;12.63;6.93;;;16.30;7.70;;;;;;4960182;29;20462;-82
2022/04/30 12:14:04;;;;;;;12.17;5.00;;;16.60;4.60;;;;;;4959891;29;20484;-83
2022/04/30 12:16:37;;;;;;;11.67;6.73;;;16.70;6.80;;;;;;4961677;28;20464;-82
2022/04/30 12:24:45;;;;;;;10.00;5.10;;;18.30;1.00;;;;;;4962482;29;20523;-82
2022/04/30 12:27:21;;;;;;;11.40;6.03;;;17.20;1.00;;;;;;4961154;29;20491;-85
2022/04/30 12:29:48;;;;;;;10.60;5.10;;;15.60;2.40;;;;;;4957191;28;20483;-82
2022/04/30 12:32:17;;;;;;;8.20;4.70;;;16.10;2.80;;;;;;4961466;29;20489;-82
2022/04/30 12:34:45;;;;;;;11.20;6.90;;;16.40;1.00;;;;;;4959832;29;20455;-83
2022/04/30 12:37:12;;;;;;;8.83;5.03;;;17.90;1.00;;;;;;4960765;28;20490;-84
2022/04/30 12:39:41;;;;;;;9.50;4.53;;;18.90;1.00;;;;;;4962983;28;20485;-83
2022/04/30 12:42:11;;;;;;;8.57;5.23;;;18.80;1.00;;;;;;4963659;28;20456;-83
2022/04/30 12:44:38;;;;;;;8.30;5.03;;;17.20;1.00;;;;;;4958492;28;20510;-83
2022/04/30 12:47:05;;;;;;;9.43;4.80;;;16.40;1.00;;;;;;4959618;28;20466;-82
2022/04/30 12:49:32;;;;;;;7.37;4.17;;;16.50;1.00;;;;;;4959602;28;20480;-83
2022/04/30 12:51:59;;;;;;;8.90;4.23;;;16.80;1.00;;;;;;4959805;28;20454;-83
2022/04/30 12:54:25;;;;;;;6.70;4.20;;;17.60;1.00;;;;;;4962022;28;20482;-81
2022/04/30 12:56:56;;;;;;;7.90;4.77;;;18.60;1.00;;;;;;4963256;28;20541;-83
2022/04/30 12:59:22;;;;;;;7.57;3.73;;;18.30;1.00;;;;;;4959898;28;20488;-83
2022/04/30 13:01:49;;;;;;;8.90;4.70;;;18.30;1.00;;;;;;4961424;28;20456;-80
2022/04/30 13:04:17;;;;;;;7.07;4.27;;;18.10;1.00;;;;;;4961443;29;21080;-83
2022/04/30 13:06:44;;;;;;;9.57;4.80;;;18.30;1.00;;;;;;4959167;28;20455;-82
2022/04/30 13:14:41;;;;;;;6.80;3.70;;;18.90;1.00;;;;;;4964716;29;20481;-83
2022/04/30 13:17:08;;;;;;;7.30;3.50;;;19.80;1.00;;;;;;4964633;29;20459;-83
2022/04/30 13:19:35;;;;;;;7.17;4.00;;;19.30;1.00;;;;;;4962771;28;20483;-83
2022/04/30 13:22:02;;;;;;;7.10;4.13;;;19.70;1.00;;;;;;4964299;28;20458;-83
2022/04/30 13:24:29;;;;;;;7.63;3.63;;;19.80;1.00;;;;;;4969163;28;20484;-83
2022/04/30 13:26:58;;;;;;;7.37;3.80;;;20.40;1.00;;;;;;4968026;29;20452;-84
2022/04/30 13:29:25;;;;;;;8.20;3.90;;;21.50;1.00;;;;;;4957868;28;20487;-79
2022/04/30 13:31:52;;;;;;;8.90;4.20;;;21.40;1.00;;;;;;4967988;28;20466;-80
2022/04/30 13:34:20;;;;;;;9.40;3.00;;;20.40;1.00;;;;;;4960170;28;20187;-79